sensor_id;sensor_type;location;lat;lon;timestamp;P1;durP1;ratioP1;P2;durP2;ratioP2
2712;SDS011;1366;47.988;7.856;2023-03-14T05:00:21;2.83;;;1.10;;
2712;SDS011;1366;47.988;7.856;2023-03-14T05:02:47;2.30;;;1.00;;
2712;SDS011;1366;47.988;7.856;2023-03-14T05:05:13;2.60;;;1.27;;
2712;SDS011;1366;47.988;7.856;2023-03-14T05:07:39;1.43;;;1.17;;
2712;SDS011;1366;47.988;7.856;2023-03-14T05:10:05;2.13;;;1.00;;
2712;SDS011;1366;47.988;7.856;2023-03-14T05:12:32;1.10;;;0.97;;
2712;SDS011;1366;47.988;7.856;2023-03-14T05:14:58;1.07;;;0.90;;
2712;SDS011;1366;47.988;7.856;2023-03-14T05:17:24;2.20;;;2.07;;
2712;SDS011;1366;47.988;7.856;2023-03-14T05:19:50;1.63;;;1.03;;
2712;SDS011;1366;47.988;7.856;2023-03-14T05:22:16;1.30;;;0.80;;
2712;SDS011;1366;47.988;7.856;2023-03-14T05:24:42;0.80;;;0.80;;
2712;SDS011;1366;47.988;7.856;2023-03-14T05:27:08;1.90;;;0.93;;
2712;SDS011;1366;47.988;7.856;2023-03-14T05:29:34;1.00;;;0.90;;
2712;SDS011;1366;47.988;7.856;2023-03-14T05:32:00;1.20;;;1.10;;
2712;SDS011;1366;47.988;7.856;2023-03-14T05:34:26;1.30;;;1.20;;
2712;SDS011;1366;47.988;7.856;2023-03-14T05:36:52;1.23;;;0.97;;
2712;SDS011;1366;47.988;7.856;2023-03-14T05:39:18;1.40;;;1.10;;
2712;SDS011;1366;47.988;7.856;2023-03-14T05:41:44;1.53;;;0.90;;
2712;SDS011;1366;47.988;7.856;2023-03-14T05:44:10;1.20;;;1.10;;
2712;SDS011;1366;47.988;7.856;2023-03-14T05:46:36;0.97;;;0.97;;
2712;SDS011;1366;47.988;7.856;2023-03-14T05:49:02;0.90;;;0.90;;
2712;SDS011;1366;47.988;7.856;2023-03-14T05:51:28;1.00;;;0.90;;
2712;SDS011;1366;47.988;7.856;2023-03-14T05:53:54;0.83;;;0.83;;
2712;SDS011;1366;47.988;7.856;2023-03-14T05:56:20;1.97;;;1.17;;
2712;SDS011;1366;47.988;7.856;2023-03-14T05:58:46;0.80;;;0.80;;
2712;SDS011;1366;47.988;7.856;2023-03-14T06:01:12;1.43;;;1.03;;
2712;SDS011;1366;47.988;7.856;2023-03-14T06:03:38;1.77;;;1.07;;
2712;SDS011;1366;47.988;7.856;2023-03-14T06:06:04;1.03;;;1.00;;
2712;SDS011;1366;47.988;7.856;2023-03-14T06:08:30;2.70;;;0.97;;
2712;SDS011;1366;47.988;7.856;2023-03-14T06:10:57;1.30;;;0.87;;
2712;SDS011;1366;47.988;7.856;2023-03-14T06:13:23;1.20;;;0.90;;
2712;SDS011;1366;47.988;7.856;2023-03-14T06:15:49;0.90;;;0.90;;
2712;SDS011;1366;47.988;7.856;2023-03-14T06:18:15;1.33;;;0.90;;
2712;SDS011;1366;47.988;7.856;2023-03-14T06:20:41;0.93;;;0.80;;
2712;SDS011;1366;47.988;7.856;2023-03-14T06:23:08;0.80;;;0.80;;
2712;SDS011;1366;47.988;7.856;2023-03-14T06:25:34;1.53;;;0.90;;
2712;SDS011;1366;47.988;7.856;2023-03-14T06:28:01;1.00;;;0.90;;
2712;SDS011;1366;47.988;7.856;2023-03-14T06:30:27;0.80;;;0.80;;
2712;SDS011;1366;47.988;7.856;2023-03-14T06:32:53;0.80;;;0.80;;
2712;SDS011;1366;47.988;7.856;2023-03-14T06:35:20;0.80;;;0.80;;
2712;SDS011;1366;47.988;7.856;2023-03-14T06:37:46;0.90;;;0.90;;
2712;SDS011;1366;47.988;7.856;2023-03-14T06:40:12;1.03;;;0.80;;
2712;SDS011;1366;47.988;7.856;2023-03-14T06:42:42;1.23;;;1.13;;
2712;SDS011;1366;47.988;7.856;2023-03-14T06:45:08;0.80;;;0.80;;
2712;SDS011;1366;47.988;7.856;2023-03-14T06:47:34;1.23;;;1.13;;
2712;SDS011;1366;47.988;7.856;2023-03-14T06:50:00;1.27;;;1.10;;
2712;SDS011;1366;47.988;7.856;2023-03-14T06:52:27;2.20;;;1.00;;
2712;SDS011;1366;47.988;7.856;2023-03-14T06:54:53;1.13;;;1.00;;
2712;SDS011;1366;47.988;7.856;2023-03-14T06:57:19;2.30;;;1.40;;
2712;SDS011;1366;47.988;7.856;2023-03-14T06:59:45;1.33;;;1.23;;
2712;SDS011;1366;47.988;7.856;2023-03-14T07:02:11;1.07;;;0.97;;
2712;SDS011;1366;47.988;7.856;2023-03-14T07:04:38;1.10;;;1.00;;
2712;SDS011;1366;47.988;7.856;2023-03-14T07:07:04;1.10;;;1.00;;
2712;SDS011;1366;47.988;7.856;2023-03-14T07:09:30;1.13;;;0.90;;
2712;SDS011;1366;47.988;7.856;2023-03-14T07:11:57;1.07;;;0.90;;
2712;SDS011;1366;47.988;7.856;2023-03-14T07:14:23;0.90;;;0.90;;
2712;SDS011;1366;47.988;7.856;2023-03-14T07:16:49;0.73;;;0.73;;
2712;SDS011;1366;47.988;7.856;2023-03-14T07:19:15;1.47;;;0.90;;
2712;SDS011;1366;47.988;7.856;2023-03-14T07:21:41;1.73;;;0.87;;
2712;SDS011;1366;47.988;7.856;2023-03-14T07:24:07;1.53;;;1.10;;
2712;SDS011;1366;47.988;7.856;2023-03-14T07:26:33;0.97;;;0.70;;
2712;SDS011;1366;47.988;7.856;2023-03-14T07:28:59;1.20;;;1.10;;
2712;SDS011;1366;47.988;7.856;2023-03-14T07:31:28;1.23;;;0.90;;
2712;SDS011;1366;47.988;7.856;2023-03-14T07:33:54;0.90;;;0.90;;
2712;SDS011;1366;47.988;7.856;2023-03-14T07:36:20;1.23;;;0.87;;
2712;SDS011;1366;47.988;7.856;2023-03-14T07:38:46;1.73;;;1.13;;
2712;SDS011;1366;47.988;7.856;2023-03-14T07:41:12;1.20;;;1.10;;
2712;SDS011;1366;47.988;7.856;2023-03-14T07:43:38;1.47;;;1.00;;
2712;SDS011;1366;47.988;7.856;2023-03-14T07:46:05;0.80;;;0.80;;
2712;SDS011;1366;47.988;7.856;2023-03-14T07:48:31;1.03;;;0.90;;
2712;SDS011;1366;47.988;7.856;2023-03-14T07:50:57;1.17;;;0.97;;
2712;SDS011;1366;47.988;7.856;2023-03-14T07:53:23;1.30;;;1.00;;
2712;SDS011;1366;47.988;7.856;2023-03-14T07:55:53;0.80;;;0.80;;
2712;SDS011;1366;47.988;7.856;2023-03-14T07:58:19;1.27;;;1.13;;
2712;SDS011;1366;47.988;7.856;2023-03-14T08:00:46;1.00;;;1.00;;
2712;SDS011;1366;47.988;7.856;2023-03-14T08:03:13;1.37;;;1.27;;
2712;SDS011;1366;47.988;7.856;2023-03-14T08:05:39;1.23;;;1.07;;
2712;SDS011;1366;47.988;7.856;2023-03-14T08:08:07;0.90;;;0.90;;
2712;SDS011;1366;47.988;7.856;2023-03-14T08:10:33;1.17;;;1.07;;
2712;SDS011;1366;47.988;7.856;2023-03-14T08:12:59;0.90;;;0.90;;
2712;SDS011;1366;47.988;7.856;2023-03-14T08:15:26;1.20;;;1.10;;
2712;SDS011;1366;47.988;7.856;2023-03-14T08:17:52;1.07;;;0.87;;
2712;SDS011;1366;47.988;7.856;2023-03-14T08:20:19;0.97;;;0.93;;
2712;SDS011;1366;47.988;7.856;2023-03-14T08:22:46;0.90;;;0.90;;
2712;SDS011;1366;47.988;7.856;2023-03-14T08:25:12;1.07;;;0.80;;
2712;SDS011;1366;47.988;7.856;2023-03-14T08:27:38;1.17;;;1.13;;
2712;SDS011;1366;47.988;7.856;2023-03-14T08:30:06;0.93;;;0.90;;
2712;SDS011;1366;47.988;7.856;2023-03-14T08:32:32;1.07;;;0.97;;
2712;SDS011;1366;47.988;7.856;2023-03-14T08:34:58;1.10;;;1.00;;
2712;SDS011;1366;47.988;7.856;2023-03-14T08:37:24;0.83;;;0.83;;
2712;SDS011;1366;47.988;7.856;2023-03-14T08:39:51;1.60;;;1.23;;
2712;SDS011;1366;47.988;7.856;2023-03-14T08:42:17;0.90;;;0.90;;
2712;SDS011;1366;47.988;7.856;2023-03-14T08:44:44;0.90;;;0.90;;
2712;SDS011;1366;47.988;7.856;2023-03-14T08:47:10;1.37;;;1.03;;
2712;SDS011;1366;47.988;7.856;2023-03-14T08:49:36;1.10;;;0.90;;
2712;SDS011;1366;47.988;7.856;2023-03-14T08:52:02;1.20;;;1.10;;
2712;SDS011;1366;47.988;7.856;2023-03-14T08:54:29;1.20;;;1.10;;
2712;SDS011;1366;47.988;7.856;2023-03-14T08:56:55;1.40;;;1.00;;
2712;SDS011;1366;47.988;7.856;2023-03-14T08:59:21;0.90;;;0.90;;
2712;SDS011;1366;47.988;7.856;2023-03-14T09:01:47;1.03;;;1.00;;
2712;SDS011;1366;47.988;7.856;2023-03-14T09:04:13;1.53;;;1.00;;
2712;SDS011;1366;47.988;7.856;2023-03-14T09:06:40;1.00;;;1.00;;
2712;SDS011;1366;47.988;7.856;2023-03-14T09:09:06;2.10;;;1.00;;
2712;SDS011;1366;47.988;7.856;2023-03-14T09:11:32;0.90;;;0.90;;
2712;SDS011;1366;47.988;7.856;2023-03-14T09:13:58;1.53;;;1.43;;
2712;SDS011;1366;47.988;7.856;2023-03-14T09:16:24;1.67;;;1.30;;
2712;SDS011;1366;47.988;7.856;2023-03-14T09:18:50;1.03;;;0.97;;
2712;SDS011;1366;47.988;7.856;2023-03-14T09:21:22;0.90;;;0.90;;
2712;SDS011;1366;47.988;7.856;2023-03-14T09:23:48;0.80;;;0.80;;
2712;SDS011;1366;47.988;7.856;2023-03-14T09:26:14;1.10;;;1.00;;
2712;SDS011;1366;47.988;7.856;2023-03-14T09:28:40;1.97;;;0.90;;
2712;SDS011;1366;47.988;7.856;2023-03-14T09:31:15;0.93;;;0.90;;
2712;SDS011;1366;47.988;7.856;2023-03-14T09:33:41;1.00;;;1.00;;
2712;SDS011;1366;47.988;7.856;2023-03-14T09:36:07;0.87;;;0.87;;
2712;SDS011;1366;47.988;7.856;2023-03-14T09:38:33;1.03;;;0.93;;
2712;SDS011;1366;47.988;7.856;2023-03-14T09:41:00;0.70;;;0.70;;
2712;SDS011;1366;47.988;7.856;2023-03-14T09:43:28;1.13;;;1.13;;
2712;SDS011;1366;47.988;7.856;2023-03-14T09:45:55;0.73;;;0.73;;
2712;SDS011;1366;47.988;7.856;2023-03-14T09:48:24;0.77;;;0.77;;
2712;SDS011;1366;47.988;7.856;2023-03-14T09:50:53;0.70;;;0.70;;
2712;SDS011;1366;47.988;7.856;2023-03-14T09:53:24;1.80;;;0.90;;
2712;SDS011;1366;47.988;7.856;2023-03-14T09:55:51;0.80;;;0.80;;
2712;SDS011;1366;47.988;7.856;2023-03-14T09:58:20;1.67;;;1.00;;
2712;SDS011;1366;47.988;7.856;2023-03-14T10:00:47;0.80;;;0.80;;
2712;SDS011;1366;47.988;7.856;2023-03-14T10:05:43;0.90;;;0.90;;
2712;SDS011;1366;47.988;7.856;2023-03-14T10:08:09;0.80;;;0.80;;
2712;SDS011;1366;47.988;7.856;2023-03-14T10:10:36;0.80;;;0.80;;
2712;SDS011;1366;47.988;7.856;2023-03-14T10:13:10;0.87;;;0.87;;
2712;SDS011;1366;47.988;7.856;2023-03-14T10:15:38;0.90;;;0.80;;
2712;SDS011;1366;47.988;7.856;2023-03-14T10:18:09;0.80;;;0.80;;
2712;SDS011;1366;47.988;7.856;2023-03-14T10:20:38;1.10;;;1.10;;
2712;SDS011;1366;47.988;7.856;2023-03-14T10:25:33;0.80;;;0.80;;
2712;SDS011;1366;47.988;7.856;2023-03-14T10:27:59;0.80;;;0.80;;
2712;SDS011;1366;47.988;7.856;2023-03-14T10:30:30;0.80;;;0.80;;
2712;SDS011;1366;47.988;7.856;2023-03-14T10:33:07;0.70;;;0.70;;
2712;SDS011;1366;47.988;7.856;2023-03-14T10:35:33;0.70;;;0.70;;
2712;SDS011;1366;47.988;7.856;2023-03-14T10:38:00;0.70;;;0.70;;
2712;SDS011;1366;47.988;7.856;2023-03-14T10:40:48;1.27;;;1.10;;
2712;SDS011;1366;47.988;7.856;2023-03-14T10:43:18;0.80;;;0.80;;
2712;SDS011;1366;47.988;7.856;2023-03-14T10:45:51;0.80;;;0.80;;
2712;SDS011;1366;47.988;7.856;2023-03-14T10:48:36;2.50;;;0.90;;
2712;SDS011;1366;47.988;7.856;2023-03-14T10:53:33;0.90;;;0.90;;
2712;SDS011;1366;47.988;7.856;2023-03-14T10:55:59;0.87;;;0.87;;
2712;SDS011;1366;47.988;7.856;2023-03-14T10:58:28;1.20;;;1.10;;
2712;SDS011;1366;47.988;7.856;2023-03-14T11:03:24;0.73;;;0.73;;
2712;SDS011;1366;47.988;7.856;2023-03-14T11:08:30;1.53;;;1.00;;
2712;SDS011;1366;47.988;7.856;2023-03-14T11:11:02;1.10;;;1.00;;
2712;SDS011;1366;47.988;7.856;2023-03-14T11:24:31;1.67;;;0.90;;
2712;SDS011;1366;47.988;7.856;2023-03-14T11:27:00;0.87;;;0.87;;
2712;SDS011;1366;47.988;7.856;2023-03-14T11:32:02;0.80;;;0.80;;
2712;SDS011;1366;47.988;7.856;2023-03-14T11:36:59;0.90;;;0.90;;
2712;SDS011;1366;47.988;7.856;2023-03-14T11:39:26;2.10;;;1.20;;
2712;SDS011;1366;47.988;7.856;2023-03-14T11:41:55;1.20;;;1.10;;
2712;SDS011;1366;47.988;7.856;2023-03-14T11:44:27;1.13;;;1.03;;
2712;SDS011;1366;47.988;7.856;2023-03-14T11:47:09;1.00;;;1.00;;
2712;SDS011;1366;47.988;7.856;2023-03-14T11:49:40;1.07;;;0.97;;
2712;SDS011;1366;47.988;7.856;2023-03-14T11:52:10;1.43;;;1.10;;
2712;SDS011;1366;47.988;7.856;2023-03-14T11:57:05;1.03;;;1.00;;
2712;SDS011;1366;47.988;7.856;2023-03-14T12:02:18;0.90;;;0.90;;
2712;SDS011;1366;47.988;7.856;2023-03-14T12:07:20;2.20;;;1.10;;
2712;SDS011;1366;47.988;7.856;2023-03-14T12:09:48;4.00;;;1.13;;
2712;SDS011;1366;47.988;7.856;2023-03-14T12:12:22;1.10;;;1.10;;
2712;SDS011;1366;47.988;7.856;2023-03-14T12:14:52;1.00;;;1.00;;
2712;SDS011;1366;47.988;7.856;2023-03-14T12:19:45;0.90;;;0.90;;
2712;SDS011;1366;47.988;7.856;2023-03-14T12:22:30;0.97;;;0.97;;
2712;SDS011;1366;47.988;7.856;2023-03-14T12:25:20;1.73;;;1.10;;
2712;SDS011;1366;47.988;7.856;2023-03-14T12:27:49;0.90;;;0.90;;
2712;SDS011;1366;47.988;7.856;2023-03-14T12:30:32;1.80;;;1.10;;
2712;SDS011;1366;47.988;7.856;2023-03-14T12:35:41;1.27;;;1.17;;
2712;SDS011;1366;47.988;7.856;2023-03-14T12:41:03;1.80;;;1.00;;
2712;SDS011;1366;47.988;7.856;2023-03-14T12:43:31;1.10;;;1.00;;
2712;SDS011;1366;47.988;7.856;2023-03-14T12:48:47;1.23;;;1.00;;
2712;SDS011;1366;47.988;7.856;2023-03-14T12:51:15;1.00;;;0.90;;
2712;SDS011;1366;47.988;7.856;2023-03-14T12:58:59;1.43;;;1.33;;
2712;SDS011;1366;47.988;7.856;2023-03-14T13:01:28;1.00;;;1.00;;
2712;SDS011;1366;47.988;7.856;2023-03-14T13:03:55;1.07;;;0.90;;
2712;SDS011;1366;47.988;7.856;2023-03-14T13:11:53;1.10;;;1.00;;
2712;SDS011;1366;47.988;7.856;2023-03-14T13:14:19;2.07;;;1.00;;
2712;SDS011;1366;47.988;7.856;2023-03-14T13:16:46;0.83;;;0.83;;
2712;SDS011;1366;47.988;7.856;2023-03-14T13:19:17;0.90;;;0.90;;
2712;SDS011;1366;47.988;7.856;2023-03-14T13:21:45;1.40;;;1.10;;
2712;SDS011;1366;47.988;7.856;2023-03-14T13:24:21;1.57;;;1.10;;
2712;SDS011;1366;47.988;7.856;2023-03-14T13:26:48;1.30;;;1.20;;
2712;SDS011;1366;47.988;7.856;2023-03-14T13:31:43;1.70;;;1.20;;
2712;SDS011;1366;47.988;7.856;2023-03-14T13:34:09;1.43;;;1.10;;
2712;SDS011;1366;47.988;7.856;2023-03-14T13:36:36;2.10;;;1.30;;
2712;SDS011;1366;47.988;7.856;2023-03-14T13:39:02;1.53;;;1.00;;
2712;SDS011;1366;47.988;7.856;2023-03-14T13:41:29;2.00;;;1.10;;
2712;SDS011;1366;47.988;7.856;2023-03-14T13:44:01;1.17;;;1.07;;
2712;SDS011;1366;47.988;7.856;2023-03-14T13:46:28;1.47;;;1.13;;
2712;SDS011;1366;47.988;7.856;2023-03-14T13:48:55;1.43;;;1.10;;
2712;SDS011;1366;47.988;7.856;2023-03-14T13:51:21;1.30;;;1.20;;
2712;SDS011;1366;47.988;7.856;2023-03-14T13:53:50;1.50;;;1.17;;
2712;SDS011;1366;47.988;7.856;2023-03-14T13:56:23;1.10;;;1.00;;
2712;SDS011;1366;47.988;7.856;2023-03-14T13:58:50;1.40;;;1.30;;
2712;SDS011;1366;47.988;7.856;2023-03-14T14:01:18;1.27;;;1.17;;
2712;SDS011;1366;47.988;7.856;2023-03-14T14:03:45;2.93;;;1.30;;
2712;SDS011;1366;47.988;7.856;2023-03-14T14:06:25;1.40;;;1.30;;
2712;SDS011;1366;47.988;7.856;2023-03-14T14:08:52;1.77;;;1.30;;
2712;SDS011;1366;47.988;7.856;2023-03-14T14:14:15;2.50;;;1.50;;
2712;SDS011;1366;47.988;7.856;2023-03-14T14:16:43;1.70;;;1.60;;
2712;SDS011;1366;47.988;7.856;2023-03-14T14:19:10;2.70;;;2.00;;
2712;SDS011;1366;47.988;7.856;2023-03-14T14:21:36;1.67;;;1.57;;
2712;SDS011;1366;47.988;7.856;2023-03-14T14:24:03;1.43;;;1.33;;
2712;SDS011;1366;47.988;7.856;2023-03-14T14:26:29;1.67;;;1.47;;
2712;SDS011;1366;47.988;7.856;2023-03-14T14:29:01;3.70;;;1.60;;
2712;SDS011;1366;47.988;7.856;2023-03-14T14:31:27;3.37;;;1.50;;
2712;SDS011;1366;47.988;7.856;2023-03-14T14:34:00;1.73;;;1.40;;
2712;SDS011;1366;47.988;7.856;2023-03-14T14:36:31;2.03;;;1.40;;
2712;SDS011;1366;47.988;7.856;2023-03-14T14:41:26;3.20;;;1.40;;
2712;SDS011;1366;47.988;7.856;2023-03-14T14:43:53;2.03;;;1.93;;
2712;SDS011;1366;47.988;7.856;2023-03-14T14:46:19;3.23;;;2.10;;
2712;SDS011;1366;47.988;7.856;2023-03-14T14:48:45;1.70;;;1.60;;
2712;SDS011;1366;47.988;7.856;2023-03-14T14:51:22;1.93;;;1.80;;
2712;SDS011;1366;47.988;7.856;2023-03-14T14:53:49;3.03;;;1.90;;
2712;SDS011;1366;47.988;7.856;2023-03-14T14:56:19;1.83;;;1.67;;
2712;SDS011;1366;47.988;7.856;2023-03-14T14:58:47;1.50;;;1.40;;
2712;SDS011;1366;47.988;7.856;2023-03-14T15:01:17;3.57;;;1.63;;
2712;SDS011;1366;47.988;7.856;2023-03-14T15:03:44;2.03;;;1.53;;
2712;SDS011;1366;47.988;7.856;2023-03-14T15:06:11;6.97;;;1.83;;
2712;SDS011;1366;47.988;7.856;2023-03-14T15:08:38;2.20;;;1.50;;
2712;SDS011;1366;47.988;7.856;2023-03-14T15:11:04;2.17;;;1.20;;
2712;SDS011;1366;47.988;7.856;2023-03-14T15:13:30;4.13;;;1.60;;
2712;SDS011;1366;47.988;7.856;2023-03-14T15:15:56;1.50;;;1.40;;
2712;SDS011;1366;47.988;7.856;2023-03-14T15:18:23;2.40;;;1.60;;
2712;SDS011;1366;47.988;7.856;2023-03-14T15:20:50;1.83;;;1.20;;
2712;SDS011;1366;47.988;7.856;2023-03-14T15:23:18;1.73;;;1.40;;
2712;SDS011;1366;47.988;7.856;2023-03-14T15:25:44;1.60;;;1.50;;
2712;SDS011;1366;47.988;7.856;2023-03-14T15:28:16;2.47;;;1.47;;
2712;SDS011;1366;47.988;7.856;2023-03-14T15:30:42;1.47;;;1.37;;
2712;SDS011;1366;47.988;7.856;2023-03-14T15:33:08;3.80;;;1.67;;
2712;SDS011;1366;47.988;7.856;2023-03-14T15:35:35;2.50;;;1.60;;
2712;SDS011;1366;47.988;7.856;2023-03-14T15:38:02;2.50;;;1.77;;
2712;SDS011;1366;47.988;7.856;2023-03-14T15:40:28;2.13;;;1.50;;
2712;SDS011;1366;47.988;7.856;2023-03-14T15:42:54;3.30;;;2.00;;
2712;SDS011;1366;47.988;7.856;2023-03-14T15:45:20;2.53;;;2.10;;
2712;SDS011;1366;47.988;7.856;2023-03-14T15:47:46;4.60;;;2.30;;
2712;SDS011;1366;47.988;7.856;2023-03-14T15:50:12;2.40;;;1.70;;
2712;SDS011;1366;47.988;7.856;2023-03-14T15:52:38;2.30;;;2.10;;
2712;SDS011;1366;47.988;7.856;2023-03-14T15:55:05;3.13;;;2.23;;
2712;SDS011;1366;47.988;7.856;2023-03-14T15:57:31;3.50;;;1.70;;
2712;SDS011;1366;47.988;7.856;2023-03-14T15:59:57;6.00;;;2.93;;
2712;SDS011;1366;47.988;7.856;2023-03-14T16:02:23;2.27;;;1.70;;
2712;SDS011;1366;47.988;7.856;2023-03-14T16:04:49;4.20;;;1.80;;
2712;SDS011;1366;47.988;7.856;2023-03-14T16:07:15;3.50;;;1.70;;
2712;SDS011;1366;47.988;7.856;2023-03-14T16:09:41;4.17;;;2.30;;
2712;SDS011;1366;47.988;7.856;2023-03-14T16:12:07;4.10;;;2.10;;
2712;SDS011;1366;47.988;7.856;2023-03-14T16:14:34;1.80;;;1.70;;
2712;SDS011;1366;47.988;7.856;2023-03-14T16:17:00;1.63;;;1.53;;
2712;SDS011;1366;47.988;7.856;2023-03-14T16:19:26;2.30;;;1.30;;
2712;SDS011;1366;47.988;7.856;2023-03-14T16:21:52;1.77;;;1.63;;
2712;SDS011;1366;47.988;7.856;2023-03-14T16:24:18;2.57;;;1.60;;
2712;SDS011;1366;47.988;7.856;2023-03-14T16:26:44;1.73;;;1.60;;
2712;SDS011;1366;47.988;7.856;2023-03-14T16:29:12;1.60;;;1.50;;
2712;SDS011;1366;47.988;7.856;2023-03-14T16:31:38;3.87;;;1.60;;
2712;SDS011;1366;47.988;7.856;2023-03-14T16:34:07;2.23;;;1.80;;
2712;SDS011;1366;47.988;7.856;2023-03-14T16:36:33;1.40;;;1.30;;
2712;SDS011;1366;47.988;7.856;2023-03-14T16:38:59;1.70;;;1.37;;
2712;SDS011;1366;47.988;7.856;2023-03-14T16:41:25;1.70;;;1.20;;
2712;SDS011;1366;47.988;7.856;2023-03-14T16:43:56;3.00;;;1.80;;
2712;SDS011;1366;47.988;7.856;2023-03-14T16:46:22;1.60;;;1.50;;
2712;SDS011;1366;47.988;7.856;2023-03-14T16:48:52;2.80;;;1.90;;
2712;SDS011;1366;47.988;7.856;2023-03-14T16:51:19;1.70;;;1.50;;
2712;SDS011;1366;47.988;7.856;2023-03-14T16:53:45;2.13;;;1.90;;
2712;SDS011;1366;47.988;7.856;2023-03-14T16:56:12;1.77;;;1.67;;
2712;SDS011;1366;47.988;7.856;2023-03-14T16:58:38;2.20;;;1.80;;
2712;SDS011;1366;47.988;7.856;2023-03-14T17:01:05;1.90;;;1.80;;
2712;SDS011;1366;47.988;7.856;2023-03-14T17:03:35;3.93;;;1.60;;
2712;SDS011;1366;47.988;7.856;2023-03-14T17:06:01;1.70;;;1.40;;
2712;SDS011;1366;47.988;7.856;2023-03-14T17:08:27;1.83;;;1.50;;
2712;SDS011;1366;47.988;7.856;2023-03-14T17:10:53;1.90;;;1.70;;
2712;SDS011;1366;47.988;7.856;2023-03-14T17:13:20;1.77;;;1.67;;
2712;SDS011;1366;47.988;7.856;2023-03-14T17:15:52;4.03;;;1.50;;
2712;SDS011;1366;47.988;7.856;2023-03-14T17:18:19;1.93;;;1.60;;
2712;SDS011;1366;47.988;7.856;2023-03-14T17:20:45;2.40;;;1.87;;
2712;SDS011;1366;47.988;7.856;2023-03-14T17:23:11;2.27;;;1.67;;
2712;SDS011;1366;47.988;7.856;2023-03-14T17:25:37;1.80;;;1.53;;
2712;SDS011;1366;47.988;7.856;2023-03-14T17:28:04;1.60;;;1.50;;
2712;SDS011;1366;47.988;7.856;2023-03-14T17:30:31;2.03;;;1.60;;
2712;SDS011;1366;47.988;7.856;2023-03-14T17:32:57;1.63;;;1.53;;
2712;SDS011;1366;47.988;7.856;2023-03-14T17:35:23;1.93;;;1.40;;
2712;SDS011;1366;47.988;7.856;2023-03-14T17:37:49;1.83;;;1.40;;
2712;SDS011;1366;47.988;7.856;2023-03-14T17:40:15;1.73;;;1.60;;
2712;SDS011;1366;47.988;7.856;2023-03-14T17:42:41;1.50;;;1.40;;
2712;SDS011;1366;47.988;7.856;2023-03-14T17:45:07;1.40;;;1.30;;
2712;SDS011;1366;47.988;7.856;2023-03-14T17:47:33;1.77;;;1.50;;
2712;SDS011;1366;47.988;7.856;2023-03-14T17:49:59;2.50;;;1.20;;
2712;SDS011;1366;47.988;7.856;2023-03-14T17:52:29;1.53;;;1.20;;
2712;SDS011;1366;47.988;7.856;2023-03-14T17:54:55;1.30;;;1.20;;
2712;SDS011;1366;47.988;7.856;2023-03-14T17:57:21;1.53;;;1.43;;
2712;SDS011;1366;47.988;7.856;2023-03-14T17:59:47;2.17;;;1.57;;
2712;SDS011;1366;47.988;7.856;2023-03-14T18:02:13;1.40;;;1.30;;
2712;SDS011;1366;47.988;7.856;2023-03-14T18:04:39;4.20;;;2.10;;
2712;SDS011;1366;47.988;7.856;2023-03-14T18:07:06;1.50;;;1.40;;
2712;SDS011;1366;47.988;7.856;2023-03-14T18:09:32;1.83;;;1.33;;
2712;SDS011;1366;47.988;7.856;2023-03-14T18:11:58;1.30;;;1.20;;
2712;SDS011;1366;47.988;7.856;2023-03-14T18:14:25;1.53;;;1.43;;
2712;SDS011;1366;47.988;7.856;2023-03-14T18:16:52;3.30;;;1.60;;
2712;SDS011;1366;47.988;7.856;2023-03-14T18:19:18;1.93;;;1.70;;
2712;SDS011;1366;47.988;7.856;2023-03-14T18:21:44;2.63;;;1.47;;
2712;SDS011;1366;47.988;7.856;2023-03-14T18:24:11;2.00;;;1.80;;
2712;SDS011;1366;47.988;7.856;2023-03-14T18:26:37;3.63;;;1.90;;
2712;SDS011;1366;47.988;7.856;2023-03-14T18:29:03;2.23;;;2.03;;
2712;SDS011;1366;47.988;7.856;2023-03-14T18:31:30;2.70;;;1.70;;
2712;SDS011;1366;47.988;7.856;2023-03-14T18:33:59;1.90;;;1.80;;
2712;SDS011;1366;47.988;7.856;2023-03-14T18:36:25;1.80;;;1.70;;
2712;SDS011;1366;47.988;7.856;2023-03-14T18:38:51;1.43;;;1.30;;
2712;SDS011;1366;47.988;7.856;2023-03-14T18:41:20;1.77;;;1.60;;
2712;SDS011;1366;47.988;7.856;2023-03-14T18:43:50;1.87;;;1.77;;
2712;SDS011;1366;47.988;7.856;2023-03-14T18:46:17;1.50;;;1.40;;
2712;SDS011;1366;47.988;7.856;2023-03-14T18:48:44;1.40;;;1.30;;
2712;SDS011;1366;47.988;7.856;2023-03-14T18:51:11;1.70;;;1.60;;
2712;SDS011;1366;47.988;7.856;2023-03-14T18:53:39;1.57;;;1.47;;
2712;SDS011;1366;47.988;7.856;2023-03-14T18:56:06;1.70;;;1.60;;
2712;SDS011;1366;47.988;7.856;2023-03-14T18:58:32;1.57;;;1.47;;
2712;SDS011;1366;47.988;7.856;2023-03-14T19:01:00;3.43;;;1.60;;
2712;SDS011;1366;47.988;7.856;2023-03-14T19:03:26;1.60;;;1.50;;
2712;SDS011;1366;47.988;7.856;2023-03-14T19:05:53;2.60;;;1.83;;
2712;SDS011;1366;47.988;7.856;2023-03-14T19:08:20;4.00;;;1.90;;
2712;SDS011;1366;47.988;7.856;2023-03-14T19:10:51;2.60;;;1.70;;
2712;SDS011;1366;47.988;7.856;2023-03-14T19:13:18;1.87;;;1.77;;
2712;SDS011;1366;47.988;7.856;2023-03-14T19:15:44;1.63;;;1.53;;
2712;SDS011;1366;47.988;7.856;2023-03-14T19:18:10;1.80;;;1.70;;
2712;SDS011;1366;47.988;7.856;2023-03-14T19:20:37;2.50;;;1.67;;
2712;SDS011;1366;47.988;7.856;2023-03-14T19:23:03;1.97;;;1.63;;
2712;SDS011;1366;47.988;7.856;2023-03-14T19:25:29;1.77;;;1.60;;
2712;SDS011;1366;47.988;7.856;2023-03-14T19:27:55;1.93;;;1.67;;
2712;SDS011;1366;47.988;7.856;2023-03-14T19:30:21;2.53;;;1.80;;
2712;SDS011;1366;47.988;7.856;2023-03-14T19:32:47;1.67;;;1.50;;
2712;SDS011;1366;47.988;7.856;2023-03-14T19:35:14;2.40;;;2.20;;
2712;SDS011;1366;47.988;7.856;2023-03-14T19:37:40;2.07;;;1.93;;
2712;SDS011;1366;47.988;7.856;2023-03-14T19:40:07;2.37;;;2.07;;
2712;SDS011;1366;47.988;7.856;2023-03-14T19:42:34;2.57;;;2.00;;
2712;SDS011;1366;47.988;7.856;2023-03-14T19:45:00;1.70;;;1.60;;
2712;SDS011;1366;47.988;7.856;2023-03-14T19:47:30;2.87;;;1.77;;
2712;SDS011;1366;47.988;7.856;2023-03-14T19:49:56;2.10;;;1.47;;
2712;SDS011;1366;47.988;7.856;2023-03-14T19:52:24;1.80;;;1.70;;
2712;SDS011;1366;47.988;7.856;2023-03-14T19:54:51;1.90;;;1.80;;
2712;SDS011;1366;47.988;7.856;2023-03-14T19:57:18;2.10;;;1.90;;
2712;SDS011;1366;47.988;7.856;2023-03-14T19:59:45;2.63;;;2.17;;
2712;SDS011;1366;47.988;7.856;2023-03-14T20:02:12;2.80;;;2.00;;
2712;SDS011;1366;47.988;7.856;2023-03-14T20:04:39;4.10;;;1.67;;
2712;SDS011;1366;47.988;7.856;2023-03-14T20:07:08;2.00;;;1.80;;
2712;SDS011;1366;47.988;7.856;2023-03-14T20:09:34;2.00;;;1.80;;
2712;SDS011;1366;47.988;7.856;2023-03-14T20:12:00;4.50;;;1.60;;
2712;SDS011;1366;47.988;7.856;2023-03-14T20:14:26;1.63;;;1.53;;
2712;SDS011;1366;47.988;7.856;2023-03-14T20:16:52;1.60;;;1.50;;
2712;SDS011;1366;47.988;7.856;2023-03-14T20:19:18;2.43;;;1.70;;
2712;SDS011;1366;47.988;7.856;2023-03-14T20:21:46;1.87;;;1.63;;
2712;SDS011;1366;47.988;7.856;2023-03-14T20:24:12;2.00;;;1.77;;
2712;SDS011;1366;47.988;7.856;2023-03-14T20:26:38;3.97;;;2.30;;
2712;SDS011;1366;47.988;7.856;2023-03-14T20:29:04;2.77;;;1.70;;
2712;SDS011;1366;47.988;7.856;2023-03-14T20:31:31;3.00;;;1.80;;
2712;SDS011;1366;47.988;7.856;2023-03-14T20:33:58;1.83;;;1.70;;
2712;SDS011;1366;47.988;7.856;2023-03-14T20:36:24;3.20;;;1.70;;
2712;SDS011;1366;47.988;7.856;2023-03-14T20:38:50;2.90;;;1.60;;
2712;SDS011;1366;47.988;7.856;2023-03-14T20:41:16;1.77;;;1.67;;
2712;SDS011;1366;47.988;7.856;2023-03-14T20:43:42;1.70;;;1.60;;
2712;SDS011;1366;47.988;7.856;2023-03-14T20:46:09;1.90;;;1.80;;
2712;SDS011;1366;47.988;7.856;2023-03-14T20:48:38;1.93;;;1.53;;
2712;SDS011;1366;47.988;7.856;2023-03-14T20:51:04;1.97;;;1.87;;
2712;SDS011;1366;47.988;7.856;2023-03-14T20:53:30;2.23;;;2.00;;
2712;SDS011;1366;47.988;7.856;2023-03-14T20:55:56;2.17;;;1.97;;
2712;SDS011;1366;47.988;7.856;2023-03-14T20:58:23;3.50;;;2.30;;
2712;SDS011;1366;47.988;7.856;2023-03-14T21:00:49;2.03;;;1.73;;
2712;SDS011;1366;47.988;7.856;2023-03-14T21:03:17;4.53;;;2.07;;
2712;SDS011;1366;47.988;7.856;2023-03-14T21:05:43;2.30;;;2.10;;
2712;SDS011;1366;47.988;7.856;2023-03-14T21:08:13;3.23;;;1.93;;
2712;SDS011;1366;47.988;7.856;2023-03-14T21:10:40;2.17;;;1.97;;
2712;SDS011;1366;47.988;7.856;2023-03-14T21:13:06;2.57;;;2.37;;
2712;SDS011;1366;47.988;7.856;2023-03-14T21:15:32;3.60;;;2.17;;
2712;SDS011;1366;47.988;7.856;2023-03-14T21:17:58;3.20;;;2.40;;
2712;SDS011;1366;47.988;7.856;2023-03-14T21:20:29;2.73;;;2.00;;